Aviation Digital Data Service (ADDS)

Output produced by METARs form (1252 UTC 21 February 2018)
found at http://www.aviationweather.gov/adds/metars/
 
TAF EGVN 201315Z 2015/2115 34015KT 9999 SCT025 
     BECMG 2021/2023 03005KT BKN010 
     TEMPO 2023/2109 7000 -RADZ BKN006 
     PROB30 
     TEMPO 2101/2108 4000 DZ BKN004 
     BECMG 2108/2110 SCT018 
     BECMG 2110/2112 SCT025
       
EGCC 211220Z 05004KT 020V110 9999 FEW024 BKN034 07/02 Q1028 NOSIG
TAF EGCC 201104Z 2012/2118 34013KT 9999 FEW025 
     PROB30 
     TEMPO 2012/2020 35015G25KT 
     BECMG 2017/2020 35003KT 
     PROB40 
     TEMPO 2101/2107 8000 -RADZ BKN014
       
TAF AMD EGKK 201428Z 2014/2118 34015KT 7000 -RA BKN012 
     TEMPO 2014/2024 36015G25KT 9999 NSW BKN018 
     PROB30 
     TEMPO 2016/2022 BKN009 
     BECMG 2100/2103 03005KT 9999 NSW SCT018
       
TAF EGLL 201055Z 2012/2118 34012KT 9999 BKN025 
     PROB40 
     TEMPO 2012/2020 35015G25KT 
     BECMG 2018/2021 04008KT 
     TEMPO 2020/2106 6000 -RADZ BKN012
       
EGNO 211250Z VRB03KT 9999 FEW034 08/03 Q1029
EGNV 211220Z 01008KT 340V040 9999 FEW020 SCT028 07/02 Q1029
TAF AMD EGSS 201452Z 2014/2118 34014KT 9999 FEW012 SCT020 
     TEMPO 2014/2015 8000 -RA 
     PROB30 
     TEMPO 2014/2018 35017G27KT 
     BECMG 2015/2018 6000 -RADZ BKN012 
     TEMPO 2018/2103 4000 RADZ BR BKN008 
     BECMG 2021/2024 03004KT 
     BECMG 2103/2106 9999 NSW FEW010 BKN015 
     TEMPO 2106/2109 6000 
     PROB30 
     TEMPO 2109/2112 BKN010
       
TAF AMD EGUL 211233Z 2112/2218 VRB06KT 8000 BR SCT010 BKN015 620204 QNH3029INS 
     TEMPO 2112/2116 BKN020 
     BECMG 2115/2116 VRB06KT 6000 BR BKN010 620105 QNH3030INS 
     TEMPO 2201/2204 4000 BR BKN007 
     BECMG 2203/2204 VRB06KT 5000 BR SCT007 BKN030 QNH3027INS 
     BECMG 2207/2208 08009KT 9999 NSW BKN040 QNH3028INS 
     BECMG 2213/2214 09006KT 9999 BKN030 QNH3024INS TX07/2115Z TN01/2206Z
       
EGUN 211245Z AUTO 36003KT 9999 FEW013 OVC022 05/05 A3033 RMK AO2 RAB04E35 CIG 013 RWY11 SLP274 $
TAF AMD EGUN 201403Z 2014/2118 34015G25KT 9000 -DZ SCT015 BKN025 620256 QNH3008INS 
     TEMPO 2014/2019 34012KT BKN015 
     TEMPO 2016/2019 5000 -RA BKN010 
     BECMG 2018/2019 07009KT 9999 NSW BKN010 620109 QNH3019INS 
     BECMG 2023/2024 VRB06KT 8000 -DZ BKN020 QNH3031INS 
     BECMG 2110/2111 35009KT 8000 -DZ BR OVC007 QNH3035INS TX08/2112Z TN02/2103Z
       
TAF EGVN 201315Z 2015/2115 34015KT 9999 SCT025 
     BECMG 2021/2023 03005KT BKN010 
     TEMPO 2023/2109 7000 -RADZ BKN006 
     PROB30 
     TEMPO 2101/2108 4000 DZ BKN004 
     BECMG 2108/2110 SCT018 
     BECMG 2110/2112 SCT025
       
EGXP 211237Z 03007KT 9999 VCSH FEW020 BKN046 07/05 Q1027 BLU
EGXU 211242Z 36008KT 9999 SCT026 08/01 Q1028 BLU NOSIG
TAF AMD EGYM 211231Z 2112/2121 VRB03KT 3000 -DZ BKN010 
     BECMG 2112/2114 6000 HZ FEW010 BKN018 
     PROB30 
     TEMPO 2114/2117 -SHRA BKN015 
     BECMG 2115/2118 04008KT 8000 SCT025 
     BECMG 2119/2121 6000 BR
       
TAF AMD EGKK 201428Z 2014/2118 34015KT 7000 -RA BKN012 
     TEMPO 2014/2024 36015G25KT 9999 NSW BKN018 
     PROB30 
     TEMPO 2016/2022 BKN009 
     BECMG 2100/2103 03005KT 9999 NSW SCT018
       
TAF EGLL 201055Z 2012/2118 34012KT 9999 BKN025 
     PROB40 
     TEMPO 2012/2020 35015G25KT 
     BECMG 2018/2021 04008KT 
     TEMPO 2020/2106 6000 -RADZ BKN012
       
TAF AMD EGUL 211233Z 2112/2218 VRB06KT 8000 BR SCT010 BKN015 620204 QNH3029INS 
     TEMPO 2112/2116 BKN020 
     BECMG 2115/2116 VRB06KT 6000 BR BKN010 620105 QNH3030INS 
     TEMPO 2201/2204 4000 BR BKN007 
     BECMG 2203/2204 VRB06KT 5000 BR SCT007 BKN030 QNH3027INS 
     BECMG 2207/2208 08009KT 9999 NSW BKN040 QNH3028INS 
     BECMG 2213/2214 09006KT 9999 BKN030 QNH3024INS TX07/2115Z TN01/2206Z
       
EGXU 211242Z 36008KT 9999 SCT026 08/01 Q1028 BLU NOSIG
EGCC 211220Z 05004KT 020V110 9999 FEW024 BKN034 07/02 Q1028 NOSIG
TAF EGCC 201104Z 2012/2118 34013KT 9999 FEW025 
     PROB30 
     TEMPO 2012/2020 35015G25KT 
     BECMG 2017/2020 35003KT 
     PROB40 
     TEMPO 2101/2107 8000 -RADZ BKN014
       
TAF AMD EGYM 211231Z 2112/2121 VRB03KT 3000 -DZ BKN010 
     BECMG 2112/2114 6000 HZ FEW010 BKN018 
     PROB30 
     TEMPO 2114/2117 -SHRA BKN015 
     BECMG 2115/2118 04008KT 8000 SCT025 
     BECMG 2119/2121 6000 BR
       
EGUN 211245Z AUTO 36003KT 9999 FEW013 OVC022 05/05 A3033 RMK AO2 RAB04E35 CIG 013 RWY11 SLP274 $
TAF AMD EGUN 201403Z 2014/2118 34015G25KT 9000 -DZ SCT015 BKN025 620256 QNH3008INS 
     TEMPO 2014/2019 34012KT BKN015 
     TEMPO 2016/2019 5000 -RA BKN010 
     BECMG 2018/2019 07009KT 9999 NSW BKN010 620109 QNH3019INS 
     BECMG 2023/2024 VRB06KT 8000 -DZ BKN020 QNH3031INS 
     BECMG 2110/2111 35009KT 8000 -DZ BR OVC007 QNH3035INS TX08/2112Z TN02/2103Z
       
EGXP 211237Z 03007KT 9999 VCSH FEW020 BKN046 07/05 Q1027 BLU
TAF AMD EGSS 201452Z 2014/2118 34014KT 9999 FEW012 SCT020 
     TEMPO 2014/2015 8000 -RA 
     PROB30 
     TEMPO 2014/2018 35017G27KT 
     BECMG 2015/2018 6000 -RADZ BKN012 
     TEMPO 2018/2103 4000 RADZ BR BKN008 
     BECMG 2021/2024 03004KT 
     BECMG 2103/2106 9999 NSW FEW010 BKN015 
     TEMPO 2106/2109 6000 
     PROB30 
     TEMPO 2109/2112 BKN010
       
EGNV 211220Z 01008KT 340V040 9999 FEW020 SCT028 07/02 Q1029
EGNO 211250Z VRB03KT 9999 FEW034 08/03 Q1029